createdAt,value
2022-08-16T00:03:52.640Z,72.9
2022-08-16T00:18:17.757Z,72.7
2022-08-16T00:42:04.961Z,71.6
2022-08-16T00:51:16.072Z,71.7
2022-08-16T01:15:02.114Z,71.2
2022-08-16T01:38:39.802Z,70.6
2022-08-16T01:46:30.334Z,71.8
2022-08-16T01:53:40.537Z,71.8
2022-08-16T02:00:47.258Z,72.2
2022-08-16T02:18:22.785Z,72.5
2022-08-16T02:25:51.350Z,73.1
2022-08-16T02:33:10.185Z,73.9
2022-08-16T02:47:27.820Z,74.1
2022-08-16T02:54:27.963Z,75.1
2022-08-16T03:00:36.231Z,76.1
2022-08-16T03:06:49.293Z,75.8
2022-08-16T03:12:58.919Z,75.9
2022-08-16T03:19:04.772Z,76.5
2022-08-16T03:25:04.097Z,76.7
2022-08-16T03:31:03.437Z,77.1
2022-08-16T03:36:55.967Z,77.6
2022-08-16T03:43:23.245Z,77
2022-08-16T03:49:41.452Z,77.7
2022-08-16T03:55:47.327Z,78.4
2022-08-16T04:01:55.931Z,78.5
2022-08-16T04:08:27.118Z,79
2022-08-16T04:14:34.617Z,79.3
2022-08-16T04:20:40.805Z,79
2022-08-16T04:27:57.505Z,79
2022-08-16T04:35:16.239Z,79
2022-08-16T04:41:11.396Z,78.7
2022-08-16T04:47:31.259Z,80.6
2022-08-16T04:53:43.369Z,79.6
2022-08-16T04:59:36.774Z,80.4
2022-08-16T05:05:55.986Z,81.4
2022-08-16T05:12:05.224Z,80.4
2022-08-16T05:18:28.363Z,79.4
2022-08-16T05:24:27.329Z,77.6
2022-08-16T05:30:38.362Z,76.1
2022-08-16T05:36:39.317Z,74.4
2022-08-16T05:42:46.209Z,71
2022-08-16T05:48:45.122Z,68.1
2022-08-16T05:55:14.898Z,53.2
2022-08-16T06:01:15.469Z,60.8
2022-08-16T06:07:27.091Z,54.8
2022-08-16T06:13:43.913Z,65.4
2022-08-16T06:19:46.530Z,67.7
2022-08-16T06:25:41.606Z,67.7
2022-08-16T06:31:51.058Z,68.1
2022-08-16T06:37:54.720Z,69
2022-08-16T06:50:30.709Z,70.6
2022-08-16T06:56:27.850Z,69.8
2022-08-16T07:02:35.634Z,70.4
2022-08-16T07:08:41.865Z,69.8
2022-08-16T07:14:37.214Z,69.5
2022-08-16T07:20:49.932Z,69.6
2022-08-16T07:26:50.927Z,69.1
2022-08-16T07:32:56.156Z,68.5
2022-08-16T07:38:48.958Z,68.3
2022-08-16T07:44:51.952Z,68.5
2022-08-16T07:51:02.477Z,67.8
2022-08-16T07:56:59.157Z,66.7
2022-08-16T08:02:56.912Z,66.9
2022-08-16T08:08:57.134Z,66.8
2022-08-16T08:15:02.333Z,66.7
2022-08-16T08:21:03.836Z,65.1
2022-08-16T08:27:00.138Z,65.6
2022-08-16T08:39:24.340Z,64.4
2022-08-16T08:45:47.469Z,64
2022-08-16T08:52:33.518Z,62.4
2022-08-16T08:58:36.626Z,62.1
2022-08-16T09:11:15.909Z,60.3
2022-08-16T09:17:53.685Z,59.8
2022-08-16T09:25:09.970Z,59
2022-08-16T09:31:29.351Z,57.9
2022-08-16T09:38:12.305Z,57.6
2022-08-16T09:45:18.632Z,55.9
2022-08-16T09:51:30.699Z,54.8
2022-08-16T09:58:01.073Z,55
2022-08-16T10:05:00.370Z,54.3
2022-08-16T10:11:03.971Z,54.8
2022-08-16T10:17:13.847Z,54.5
2022-08-16T10:23:25.849Z,52.2
2022-08-16T10:30:40.852Z,50.2
2022-08-16T10:36:55.957Z,50.7
2022-08-16T10:42:52.189Z,49.9
2022-08-16T10:48:48.988Z,50.3
2022-08-16T11:03:02.071Z,48
2022-08-16T11:09:53.624Z,47.3
2022-08-16T11:17:11.539Z,47.3
2022-08-16T11:26:01.478Z,47
2022-08-16T11:32:20.077Z,45.3
2022-08-16T11:38:47.763Z,45.3
2022-08-16T11:45:17.606Z,42.2
2022-08-16T11:52:00.090Z,43
2022-08-16T11:58:24.924Z,41.9
2022-08-16T12:04:24.657Z,42.5
2022-08-16T12:10:48.655Z,41.4
2022-08-16T12:17:00.728Z,41.7
2022-08-16T12:23:03.907Z,40.6
2022-08-16T12:29:05.787Z,39
2022-08-16T12:35:13.745Z,40
2022-08-16T12:41:10.843Z,39.6
2022-08-16T12:47:16.991Z,39.2
2022-08-16T12:53:17.442Z,37.6
2022-08-16T12:59:21.959Z,37.7
2022-08-16T13:05:26.406Z,36.3
2022-08-16T13:11:32.767Z,35.8
2022-08-16T13:17:45.061Z,36.2
2022-08-16T13:23:45.637Z,34.9
2022-08-16T13:29:45.697Z,36.1
2022-08-16T13:36:50.116Z,38.1
2022-08-16T13:42:44.826Z,37.5
2022-08-16T13:48:45.966Z,38.2
2022-08-16T14:01:54.809Z,34.7
2022-08-16T14:08:16.389Z,35.6
2022-08-16T14:14:48.358Z,35.6
2022-08-16T14:21:19.679Z,35.3
2022-08-16T14:27:30.765Z,36.1
2022-08-16T14:47:31.626Z,34.6
2022-08-16T15:01:21.649Z,36
2022-08-16T15:14:43.355Z,36.3
2022-08-16T15:34:30.462Z,35.6
2022-08-16T15:40:35.281Z,36.7
2022-08-16T15:47:04.089Z,37.3
2022-08-16T16:00:17.130Z,35.5
2022-08-16T16:06:20.749Z,36.2
2022-08-16T16:37:39.232Z,35.2
2022-08-16T16:43:42.761Z,36.1
2022-08-16T16:49:43.504Z,37.3
2022-08-16T16:55:40.659Z,36.3
2022-08-16T17:02:38.334Z,36.3
2022-08-16T17:08:42.702Z,37.7
2022-08-16T17:39:29.769Z,37.5
2022-08-16T17:45:37.554Z,41.9
2022-08-16T17:51:27.524Z,43.4
2022-08-16T17:57:19.238Z,45.9
2022-08-16T18:03:10.007Z,47.1
2022-08-16T18:09:16.485Z,48
2022-08-16T18:15:08.096Z,47.7
2022-08-16T18:20:59.821Z,48
2022-08-16T18:26:53.502Z,49.3
2022-08-16T18:33:12.610Z,49.2
2022-08-16T18:39:03.986Z,50
2022-08-16T18:44:54.923Z,49.4
2022-08-16T18:51:11.622Z,49.7
2022-08-16T18:57:11.952Z,50.4
2022-08-16T19:03:05.241Z,48.9
2022-08-16T19:09:03.365Z,51.6
2022-08-16T19:14:54.808Z,52.2
2022-08-16T19:20:47.705Z,50.3
2022-08-16T19:26:38.526Z,50.9
2022-08-16T19:32:35.425Z,51.5
2022-08-16T19:38:26.036Z,51.3
2022-08-16T19:44:22.066Z,51.3
2022-08-16T19:50:13.308Z,51.7
2022-08-16T19:56:04.907Z,52.5
2022-08-16T20:01:57.860Z,52.3
2022-08-16T20:08:21.864Z,52.9
2022-08-16T20:14:28.892Z,53.2
2022-08-16T20:34:09.612Z,53.6
2022-08-16T20:40:35.817Z,53.9
2022-08-16T20:46:43.567Z,54.2
2022-08-16T20:52:37.866Z,54.2
2022-08-16T20:58:30.252Z,54.5
2022-08-16T21:04:24.559Z,55
2022-08-16T21:10:25.146Z,56.7
2022-08-16T21:16:23.387Z,57.1
2022-08-16T21:22:33.820Z,57.4
2022-08-16T21:28:44.712Z,57.7
2022-08-16T21:34:50.974Z,58.1
2022-08-16T21:40:42.822Z,59
2022-08-16T21:46:39.131Z,58.9
2022-08-16T21:52:30.141Z,58.8
2022-08-16T21:58:23.387Z,59.3
2022-08-16T22:04:40.291Z,57.9
2022-08-16T22:11:09.875Z,60.7
2022-08-16T22:16:59.358Z,60.9
2022-08-16T22:22:59.587Z,59.3
2022-08-16T22:28:52.739Z,60.2
2022-08-16T22:35:10.961Z,61.3
2022-08-16T22:41:05.277Z,60.7
2022-08-16T22:46:56.352Z,61.3
2022-08-16T22:52:58.974Z,60.6
2022-08-16T22:58:49.018Z,62.2
2022-08-16T23:04:40.557Z,63
2022-08-16T23:10:32.956Z,60.9
2022-08-16T23:16:28.766Z,62.5
2022-08-16T23:22:26.535Z,62.1
2022-08-16T23:28:17.839Z,61.6
2022-08-16T23:34:08.770Z,62.2
2022-08-16T23:39:59.240Z,63.2
2022-08-16T23:45:52.602Z,63.2
2022-08-16T23:51:46.694Z,63.5
2022-08-16T23:57:37.954Z,64.4
